sensor_id;sensor_type;location;lat;lon;timestamp;P1;durP1;ratioP1;P2;durP2;ratioP2
38162;SDS011;23977;53.078;18.248;2023-03-08T00:00:08;18.48;;;9.55;;
38162;SDS011;23977;53.078;18.248;2023-03-08T00:02:58;18.95;;;10.32;;
38162;SDS011;23977;53.078;18.248;2023-03-08T00:05:24;20.23;;;11.40;;
38162;SDS011;23977;53.078;18.248;2023-03-08T00:07:53;18.10;;;10.73;;
38162;SDS011;23977;53.078;18.248;2023-03-08T00:10:19;15.15;;;8.25;;
38162;SDS011;23977;53.078;18.248;2023-03-08T00:12:45;16.17;;;9.75;;
38162;SDS011;23977;53.078;18.248;2023-03-08T00:15:11;16.67;;;9.13;;
38162;SDS011;23977;53.078;18.248;2023-03-08T00:17:37;16.65;;;9.68;;
38162;SDS011;23977;53.078;18.248;2023-03-08T00:20:04;17.38;;;9.30;;
38162;SDS011;23977;53.078;18.248;2023-03-08T00:22:37;19.27;;;9.90;;
38162;SDS011;23977;53.078;18.248;2023-03-08T00:25:05;16.60;;;9.48;;
38162;SDS011;23977;53.078;18.248;2023-03-08T00:27:31;19.73;;;11.63;;
38162;SDS011;23977;53.078;18.248;2023-03-08T00:29:57;16.67;;;9.65;;
38162;SDS011;23977;53.078;18.248;2023-03-08T00:32:26;15.55;;;7.97;;
38162;SDS011;23977;53.078;18.248;2023-03-08T00:34:52;18.65;;;11.30;;
38162;SDS011;23977;53.078;18.248;2023-03-08T00:37:18;17.00;;;9.20;;
38162;SDS011;23977;53.078;18.248;2023-03-08T00:39:49;14.95;;;8.48;;
38162;SDS011;23977;53.078;18.248;2023-03-08T00:42:16;16.80;;;9.43;;
38162;SDS011;23977;53.078;18.248;2023-03-08T00:44:43;18.25;;;9.60;;
38162;SDS011;23977;53.078;18.248;2023-03-08T00:47:08;16.08;;;9.32;;
38162;SDS011;23977;53.078;18.248;2023-03-08T00:49:34;15.98;;;9.15;;
38162;SDS011;23977;53.078;18.248;2023-03-08T00:52:00;13.95;;;7.97;;
38162;SDS011;23977;53.078;18.248;2023-03-08T00:54:26;15.18;;;8.38;;
38162;SDS011;23977;53.078;18.248;2023-03-08T00:56:53;18.58;;;10.43;;
38162;SDS011;23977;53.078;18.248;2023-03-08T00:59:19;14.15;;;8.27;;
38162;SDS011;23977;53.078;18.248;2023-03-08T01:01:44;15.82;;;9.48;;
38162;SDS011;23977;53.078;18.248;2023-03-08T01:04:10;16.30;;;9.02;;
38162;SDS011;23977;53.078;18.248;2023-03-08T01:06:37;15.73;;;8.90;;
38162;SDS011;23977;53.078;18.248;2023-03-08T01:09:04;14.88;;;8.00;;
38162;SDS011;23977;53.078;18.248;2023-03-08T01:11:30;12.70;;;7.47;;
38162;SDS011;23977;53.078;18.248;2023-03-08T01:13:57;13.27;;;8.27;;
38162;SDS011;23977;53.078;18.248;2023-03-08T01:16:27;14.18;;;7.68;;
38162;SDS011;23977;53.078;18.248;2023-03-08T01:18:55;14.90;;;8.30;;
38162;SDS011;23977;53.078;18.248;2023-03-08T01:21:22;19.58;;;10.35;;
38162;SDS011;23977;53.078;18.248;2023-03-08T01:23:48;17.55;;;8.63;;
38162;SDS011;23977;53.078;18.248;2023-03-08T01:26:15;18.13;;;9.98;;
38162;SDS011;23977;53.078;18.248;2023-03-08T01:28:43;19.98;;;11.07;;
38162;SDS011;23977;53.078;18.248;2023-03-08T01:33:39;17.52;;;10.10;;
38162;SDS011;23977;53.078;18.248;2023-03-08T01:36:07;16.55;;;8.55;;
38162;SDS011;23977;53.078;18.248;2023-03-08T01:38:38;16.40;;;9.00;;
38162;SDS011;23977;53.078;18.248;2023-03-08T01:41:08;15.57;;;8.32;;
38162;SDS011;23977;53.078;18.248;2023-03-08T01:43:40;17.55;;;10.27;;
38162;SDS011;23977;53.078;18.248;2023-03-08T01:48:43;18.35;;;9.90;;
38162;SDS011;23977;53.078;18.248;2023-03-08T01:51:14;16.88;;;8.52;;
38162;SDS011;23977;53.078;18.248;2023-03-08T01:53:45;16.38;;;8.18;;
38162;SDS011;23977;53.078;18.248;2023-03-08T01:56:12;15.45;;;8.57;;
38162;SDS011;23977;53.078;18.248;2023-03-08T01:58:42;16.73;;;8.90;;
38162;SDS011;23977;53.078;18.248;2023-03-08T02:01:12;17.00;;;7.90;;
38162;SDS011;23977;53.078;18.248;2023-03-08T02:03:39;13.95;;;7.25;;
38162;SDS011;23977;53.078;18.248;2023-03-08T02:06:05;13.82;;;7.40;;
38162;SDS011;23977;53.078;18.248;2023-03-08T02:08:32;15.77;;;7.32;;
38162;SDS011;23977;53.078;18.248;2023-03-08T02:10:58;14.38;;;7.32;;
38162;SDS011;23977;53.078;18.248;2023-03-08T02:13:26;12.65;;;6.43;;
38162;SDS011;23977;53.078;18.248;2023-03-08T02:15:52;13.88;;;6.63;;
38162;SDS011;23977;53.078;18.248;2023-03-08T02:18:21;12.43;;;6.75;;
38162;SDS011;23977;53.078;18.248;2023-03-08T02:20:48;14.98;;;6.72;;
38162;SDS011;23977;53.078;18.248;2023-03-08T02:23:15;13.50;;;6.07;;
38162;SDS011;23977;53.078;18.248;2023-03-08T02:26:03;11.02;;;6.20;;
38162;SDS011;23977;53.078;18.248;2023-03-08T02:28:29;12.07;;;5.97;;
38162;SDS011;23977;53.078;18.248;2023-03-08T02:30:56;10.57;;;5.78;;
38162;SDS011;23977;53.078;18.248;2023-03-08T02:33:22;12.82;;;6.05;;
38162;SDS011;23977;53.078;18.248;2023-03-08T02:35:48;12.18;;;5.75;;
38162;SDS011;23977;53.078;18.248;2023-03-08T02:38:15;11.80;;;5.78;;
38162;SDS011;23977;53.078;18.248;2023-03-08T02:40:43;9.93;;;5.68;;
38162;SDS011;23977;53.078;18.248;2023-03-08T02:43:09;12.18;;;5.40;;
38162;SDS011;23977;53.078;18.248;2023-03-08T02:45:35;11.73;;;5.15;;
38162;SDS011;23977;53.078;18.248;2023-03-08T02:48:02;9.80;;;4.97;;
38162;SDS011;23977;53.078;18.248;2023-03-08T02:50:29;11.13;;;4.88;;
38162;SDS011;23977;53.078;18.248;2023-03-08T02:52:56;9.77;;;4.45;;
38162;SDS011;23977;53.078;18.248;2023-03-08T02:55:22;11.50;;;4.50;;
38162;SDS011;23977;53.078;18.248;2023-03-08T02:57:48;9.35;;;4.50;;
38162;SDS011;23977;53.078;18.248;2023-03-08T03:00:13;10.38;;;4.45;;
38162;SDS011;23977;53.078;18.248;2023-03-08T03:02:39;8.60;;;3.97;;
38162;SDS011;23977;53.078;18.248;2023-03-08T03:05:06;6.80;;;3.40;;
38162;SDS011;23977;53.078;18.248;2023-03-08T03:07:37;8.70;;;3.60;;
38162;SDS011;23977;53.078;18.248;2023-03-08T03:10:05;10.68;;;3.95;;
38162;SDS011;23977;53.078;18.248;2023-03-08T03:12:32;7.55;;;3.45;;
38162;SDS011;23977;53.078;18.248;2023-03-08T03:14:59;9.35;;;3.42;;
38162;SDS011;23977;53.078;18.248;2023-03-08T03:17:30;8.70;;;3.55;;
38162;SDS011;23977;53.078;18.248;2023-03-08T03:19:55;7.68;;;3.42;;
38162;SDS011;23977;53.078;18.248;2023-03-08T03:22:21;8.77;;;3.35;;
38162;SDS011;23977;53.078;18.248;2023-03-08T03:24:48;6.03;;;3.20;;
38162;SDS011;23977;53.078;18.248;2023-03-08T03:27:16;6.85;;;2.92;;
38162;SDS011;23977;53.078;18.248;2023-03-08T03:29:43;7.97;;;2.55;;
38162;SDS011;23977;53.078;18.248;2023-03-08T03:32:09;6.80;;;2.58;;
38162;SDS011;23977;53.078;18.248;2023-03-08T03:34:35;5.65;;;2.50;;
38162;SDS011;23977;53.078;18.248;2023-03-08T03:37:01;7.43;;;3.42;;
38162;SDS011;23977;53.078;18.248;2023-03-08T03:39:27;6.85;;;2.90;;
38162;SDS011;23977;53.078;18.248;2023-03-08T03:41:58;5.53;;;2.55;;
38162;SDS011;23977;53.078;18.248;2023-03-08T03:44:25;9.07;;;2.58;;
38162;SDS011;23977;53.078;18.248;2023-03-08T03:46:53;8.93;;;2.60;;
38162;SDS011;23977;53.078;18.248;2023-03-08T03:49:19;5.90;;;2.75;;
38162;SDS011;23977;53.078;18.248;2023-03-08T03:51:45;5.57;;;2.42;;
38162;SDS011;23977;53.078;18.248;2023-03-08T03:54:10;6.90;;;2.58;;
38162;SDS011;23977;53.078;18.248;2023-03-08T03:56:36;6.72;;;2.40;;
38162;SDS011;23977;53.078;18.248;2023-03-08T03:59:01;7.50;;;2.78;;
38162;SDS011;23977;53.078;18.248;2023-03-08T04:01:28;7.78;;;2.88;;
38162;SDS011;23977;53.078;18.248;2023-03-08T04:03:55;8.82;;;3.33;;
38162;SDS011;23977;53.078;18.248;2023-03-08T04:06:28;7.75;;;2.83;;
38162;SDS011;23977;53.078;18.248;2023-03-08T04:08:59;6.65;;;2.83;;
38162;SDS011;23977;53.078;18.248;2023-03-08T04:11:30;6.38;;;2.47;;
38162;SDS011;23977;53.078;18.248;2023-03-08T04:13:57;7.10;;;2.70;;
38162;SDS011;23977;53.078;18.248;2023-03-08T04:16:24;7.30;;;2.70;;
38162;SDS011;23977;53.078;18.248;2023-03-08T04:18:52;9.23;;;2.50;;
38162;SDS011;23977;53.078;18.248;2023-03-08T04:21:20;6.82;;;2.60;;
38162;SDS011;23977;53.078;18.248;2023-03-08T04:23:46;8.85;;;3.00;;
38162;SDS011;23977;53.078;18.248;2023-03-08T04:26:12;7.75;;;2.90;;
38162;SDS011;23977;53.078;18.248;2023-03-08T04:28:38;8.88;;;3.10;;
38162;SDS011;23977;53.078;18.248;2023-03-08T04:31:18;6.65;;;2.78;;
38162;SDS011;23977;53.078;18.248;2023-03-08T04:33:45;9.90;;;2.92;;
38162;SDS011;23977;53.078;18.248;2023-03-08T04:36:12;8.93;;;3.33;;
38162;SDS011;23977;53.078;18.248;2023-03-08T04:38:38;7.13;;;3.03;;
38162;SDS011;23977;53.078;18.248;2023-03-08T04:41:05;11.35;;;4.20;;
38162;SDS011;23977;53.078;18.248;2023-03-08T04:43:42;8.40;;;3.15;;
38162;SDS011;23977;53.078;18.248;2023-03-08T04:46:13;5.68;;;2.50;;
38162;SDS011;23977;53.078;18.248;2023-03-08T04:48:42;8.18;;;3.03;;
38162;SDS011;23977;53.078;18.248;2023-03-08T04:51:09;8.02;;;3.20;;
38162;SDS011;23977;53.078;18.248;2023-03-08T04:53:36;7.63;;;3.63;;
38162;SDS011;23977;53.078;18.248;2023-03-08T04:56:04;9.07;;;3.15;;
38162;SDS011;23977;53.078;18.248;2023-03-08T04:58:30;8.88;;;3.40;;
38162;SDS011;23977;53.078;18.248;2023-03-08T05:00:56;6.80;;;3.78;;
38162;SDS011;23977;53.078;18.248;2023-03-08T05:03:22;7.60;;;3.20;;
38162;SDS011;23977;53.078;18.248;2023-03-08T05:05:52;6.97;;;3.75;;
38162;SDS011;23977;53.078;18.248;2023-03-08T05:08:19;8.68;;;4.47;;
38162;SDS011;23977;53.078;18.248;2023-03-08T05:13:13;9.85;;;4.40;;
38162;SDS011;23977;53.078;18.248;2023-03-08T05:15:41;10.07;;;4.57;;
38162;SDS011;23977;53.078;18.248;2023-03-08T05:18:07;13.50;;;4.40;;
38162;SDS011;23977;53.078;18.248;2023-03-08T05:20:36;9.50;;;4.20;;
38162;SDS011;23977;53.078;18.248;2023-03-08T05:23:02;9.45;;;4.15;;
38162;SDS011;23977;53.078;18.248;2023-03-08T05:25:28;10.68;;;4.55;;
38162;SDS011;23977;53.078;18.248;2023-03-08T05:27:57;11.88;;;4.30;;
38162;SDS011;23977;53.078;18.248;2023-03-08T05:30:23;12.80;;;4.40;;
38162;SDS011;23977;53.078;18.248;2023-03-08T05:32:48;10.32;;;3.80;;
38162;SDS011;23977;53.078;18.248;2023-03-08T05:35:14;8.80;;;4.05;;
38162;SDS011;23977;53.078;18.248;2023-03-08T05:37:40;10.35;;;3.90;;
38162;SDS011;23977;53.078;18.248;2023-03-08T05:40:06;9.98;;;4.10;;
38162;SDS011;23977;53.078;18.248;2023-03-08T05:42:32;9.43;;;4.05;;
38162;SDS011;23977;53.078;18.248;2023-03-08T05:44:59;10.18;;;4.43;;
38162;SDS011;23977;53.078;18.248;2023-03-08T05:47:26;10.45;;;4.80;;
38162;SDS011;23977;53.078;18.248;2023-03-08T05:49:54;10.43;;;4.90;;
38162;SDS011;23977;53.078;18.248;2023-03-08T05:52:19;12.45;;;4.57;;
38162;SDS011;23977;53.078;18.248;2023-03-08T05:54:45;12.73;;;5.55;;
38162;SDS011;23977;53.078;18.248;2023-03-08T05:57:10;12.30;;;4.88;;
38162;SDS011;23977;53.078;18.248;2023-03-08T05:59:38;15.38;;;5.53;;
38162;SDS011;23977;53.078;18.248;2023-03-08T06:02:05;11.23;;;5.00;;
38162;SDS011;23977;53.078;18.248;2023-03-08T06:04:31;11.93;;;4.72;;
38162;SDS011;23977;53.078;18.248;2023-03-08T06:06:56;12.50;;;4.20;;
38162;SDS011;23977;53.078;18.248;2023-03-08T06:09:26;13.70;;;4.68;;
38162;SDS011;23977;53.078;18.248;2023-03-08T06:11:56;12.18;;;4.43;;
38162;SDS011;23977;53.078;18.248;2023-03-08T06:14:28;10.05;;;4.10;;
38162;SDS011;23977;53.078;18.248;2023-03-08T06:16:54;20.85;;;6.40;;
38162;SDS011;23977;53.078;18.248;2023-03-08T06:19:21;14.18;;;5.30;;
38162;SDS011;23977;53.078;18.248;2023-03-08T06:21:46;8.82;;;3.70;;
38162;SDS011;23977;53.078;18.248;2023-03-08T06:24:13;14.10;;;4.90;;
38162;SDS011;23977;53.078;18.248;2023-03-08T06:26:38;13.00;;;5.13;;
38162;SDS011;23977;53.078;18.248;2023-03-08T06:29:04;13.25;;;4.80;;
38162;SDS011;23977;53.078;18.248;2023-03-08T06:31:33;7.63;;;3.92;;
38162;SDS011;23977;53.078;18.248;2023-03-08T06:33:59;7.13;;;3.70;;
38162;SDS011;23977;53.078;18.248;2023-03-08T06:36:24;8.13;;;4.05;;
38162;SDS011;23977;53.078;18.248;2023-03-08T06:38:50;12.77;;;5.60;;
38162;SDS011;23977;53.078;18.248;2023-03-08T06:41:16;11.63;;;4.93;;
38162;SDS011;23977;53.078;18.248;2023-03-08T06:43:43;7.13;;;3.90;;
38162;SDS011;23977;53.078;18.248;2023-03-08T06:46:10;10.40;;;5.53;;
38162;SDS011;23977;53.078;18.248;2023-03-08T06:48:38;10.98;;;6.03;;
38162;SDS011;23977;53.078;18.248;2023-03-08T06:51:04;7.85;;;4.78;;
38162;SDS011;23977;53.078;18.248;2023-03-08T06:53:31;8.85;;;4.72;;
38162;SDS011;23977;53.078;18.248;2023-03-08T06:55:57;8.20;;;4.80;;
38162;SDS011;23977;53.078;18.248;2023-03-08T06:58:23;12.13;;;5.45;;
38162;SDS011;23977;53.078;18.248;2023-03-08T07:00:48;9.02;;;5.30;;
38162;SDS011;23977;53.078;18.248;2023-03-08T07:03:16;10.55;;;5.60;;
38162;SDS011;23977;53.078;18.248;2023-03-08T07:05:41;7.57;;;4.80;;
38162;SDS011;23977;53.078;18.248;2023-03-08T07:08:08;9.30;;;5.40;;
38162;SDS011;23977;53.078;18.248;2023-03-08T07:10:34;8.93;;;4.82;;
38162;SDS011;23977;53.078;18.248;2023-03-08T07:13:03;8.60;;;4.60;;
38162;SDS011;23977;53.078;18.248;2023-03-08T07:15:29;9.50;;;5.38;;
38162;SDS011;23977;53.078;18.248;2023-03-08T07:17:55;7.50;;;4.38;;
38162;SDS011;23977;53.078;18.248;2023-03-08T07:20:23;8.88;;;5.05;;
38162;SDS011;23977;53.078;18.248;2023-03-08T07:22:55;9.13;;;4.75;;
38162;SDS011;23977;53.078;18.248;2023-03-08T07:25:45;9.50;;;5.07;;
38162;SDS011;23977;53.078;18.248;2023-03-08T07:28:26;6.82;;;4.75;;
38162;SDS011;23977;53.078;18.248;2023-03-08T07:30:52;9.32;;;5.40;;
38162;SDS011;23977;53.078;18.248;2023-03-08T07:33:19;7.75;;;5.35;;
38162;SDS011;23977;53.078;18.248;2023-03-08T07:35:50;7.50;;;5.22;;
38162;SDS011;23977;53.078;18.248;2023-03-08T07:38:20;11.43;;;6.05;;
38162;SDS011;23977;53.078;18.248;2023-03-08T07:41:17;12.70;;;6.28;;
38162;SDS011;23977;53.078;18.248;2023-03-08T07:44:15;8.20;;;5.75;;
38162;SDS011;23977;53.078;18.248;2023-03-08T07:47:58;8.52;;;4.72;;
38162;SDS011;23977;53.078;18.248;2023-03-08T07:51:59;6.18;;;4.10;;
38162;SDS011;23977;53.078;18.248;2023-03-08T07:58:00;7.03;;;3.90;;
38162;SDS011;23977;53.078;18.248;2023-03-08T08:00:26;6.90;;;4.63;;
38162;SDS011;23977;53.078;18.248;2023-03-08T08:02:52;7.18;;;4.30;;
38162;SDS011;23977;53.078;18.248;2023-03-08T08:05:18;7.75;;;4.20;;
38162;SDS011;23977;53.078;18.248;2023-03-08T08:07:46;7.75;;;5.90;;
38162;SDS011;23977;53.078;18.248;2023-03-08T08:10:13;7.38;;;4.40;;
38162;SDS011;23977;53.078;18.248;2023-03-08T08:12:39;5.97;;;4.00;;
38162;SDS011;23977;53.078;18.248;2023-03-08T08:15:04;6.32;;;3.90;;
38162;SDS011;23977;53.078;18.248;2023-03-08T08:17:31;6.30;;;4.25;;
38162;SDS011;23977;53.078;18.248;2023-03-08T08:19:57;5.82;;;3.80;;
38162;SDS011;23977;53.078;18.248;2023-03-08T08:22:24;5.00;;;3.60;;
38162;SDS011;23977;53.078;18.248;2023-03-08T08:24:49;6.90;;;4.00;;
38162;SDS011;23977;53.078;18.248;2023-03-08T08:27:17;7.15;;;3.88;;
38162;SDS011;23977;53.078;18.248;2023-03-08T08:29:43;7.75;;;4.10;;
38162;SDS011;23977;53.078;18.248;2023-03-08T08:32:10;6.85;;;4.38;;
38162;SDS011;23977;53.078;18.248;2023-03-08T08:34:36;6.40;;;3.75;;
38162;SDS011;23977;53.078;18.248;2023-03-08T08:37:02;6.20;;;3.63;;
38162;SDS011;23977;53.078;18.248;2023-03-08T08:39:28;6.22;;;3.97;;
38162;SDS011;23977;53.078;18.248;2023-03-08T08:41:54;5.47;;;3.15;;
38162;SDS011;23977;53.078;18.248;2023-03-08T08:44:19;5.35;;;3.25;;
38162;SDS011;23977;53.078;18.248;2023-03-08T08:46:45;7.38;;;4.20;;
38162;SDS011;23977;53.078;18.248;2023-03-08T08:49:11;7.88;;;4.50;;
38162;SDS011;23977;53.078;18.248;2023-03-08T08:51:37;6.55;;;3.65;;
38162;SDS011;23977;53.078;18.248;2023-03-08T08:54:03;6.15;;;3.00;;
38162;SDS011;23977;53.078;18.248;2023-03-08T08:56:29;4.18;;;2.70;;
38162;SDS011;23977;53.078;18.248;2023-03-08T08:59:03;5.13;;;2.90;;
38162;SDS011;23977;53.078;18.248;2023-03-08T09:01:32;4.32;;;2.90;;
38162;SDS011;23977;53.078;18.248;2023-03-08T09:04:00;6.68;;;4.38;;
38162;SDS011;23977;53.078;18.248;2023-03-08T09:06:26;6.63;;;3.50;;
38162;SDS011;23977;53.078;18.248;2023-03-08T09:08:54;7.45;;;4.90;;
38162;SDS011;23977;53.078;18.248;2023-03-08T09:11:22;7.45;;;3.72;;
38162;SDS011;23977;53.078;18.248;2023-03-08T09:13:50;5.75;;;3.30;;
38162;SDS011;23977;53.078;18.248;2023-03-08T09:16:21;5.32;;;3.05;;
38162;SDS011;23977;53.078;18.248;2023-03-08T09:18:48;4.45;;;2.55;;
38162;SDS011;23977;53.078;18.248;2023-03-08T09:21:15;5.20;;;3.10;;
38162;SDS011;23977;53.078;18.248;2023-03-08T09:23:41;5.80;;;3.25;;
38162;SDS011;23977;53.078;18.248;2023-03-08T09:26:07;5.53;;;3.20;;
38162;SDS011;23977;53.078;18.248;2023-03-08T09:28:33;7.28;;;3.53;;
38162;SDS011;23977;53.078;18.248;2023-03-08T09:30:59;8.23;;;3.97;;
38162;SDS011;23977;53.078;18.248;2023-03-08T09:33:29;5.68;;;2.92;;
38162;SDS011;23977;53.078;18.248;2023-03-08T09:35:56;5.05;;;2.70;;
38162;SDS011;23977;53.078;18.248;2023-03-08T09:38:24;4.53;;;2.58;;
38162;SDS011;23977;53.078;18.248;2023-03-08T09:41:30;5.72;;;3.10;;
38162;SDS011;23977;53.078;18.248;2023-03-08T09:47:01;4.05;;;2.35;;
38162;SDS011;23977;53.078;18.248;2023-03-08T09:49:31;4.68;;;2.20;;
38162;SDS011;23977;53.078;18.248;2023-03-08T09:52:18;5.10;;;2.80;;
38162;SDS011;23977;53.078;18.248;2023-03-08T09:55:15;6.55;;;2.80;;
38162;SDS011;23977;53.078;18.248;2023-03-08T09:58:01;5.68;;;2.90;;
38162;SDS011;23977;53.078;18.248;2023-03-08T10:00:42;5.22;;;2.90;;
38162;SDS011;23977;53.078;18.248;2023-03-08T10:06:09;5.30;;;2.65;;
38162;SDS011;23977;53.078;18.248;2023-03-08T10:08:38;5.22;;;3.22;;
38162;SDS011;23977;53.078;18.248;2023-03-08T10:11:20;6.22;;;3.40;;
38162;SDS011;23977;53.078;18.248;2023-03-08T10:13:56;6.03;;;3.53;;
38162;SDS011;23977;53.078;18.248;2023-03-08T10:16:28;5.55;;;3.00;;
38162;SDS011;23977;53.078;18.248;2023-03-08T10:21:42;6.47;;;3.15;;
38162;SDS011;23977;53.078;18.248;2023-03-08T10:26:51;7.72;;;2.83;;
38162;SDS011;23977;53.078;18.248;2023-03-08T10:29:19;4.07;;;2.45;;
38162;SDS011;23977;53.078;18.248;2023-03-08T10:31:45;9.15;;;4.28;;
38162;SDS011;23977;53.078;18.248;2023-03-08T10:34:24;5.07;;;2.35;;
38162;SDS011;23977;53.078;18.248;2023-03-08T10:36:59;5.70;;;2.10;;
38162;SDS011;23977;53.078;18.248;2023-03-08T10:39:27;7.00;;;2.90;;
38162;SDS011;23977;53.078;18.248;2023-03-08T10:41:55;6.85;;;2.45;;
38162;SDS011;23977;53.078;18.248;2023-03-08T10:45:03;6.97;;;2.50;;
38162;SDS011;23977;53.078;18.248;2023-03-08T10:47:31;6.72;;;3.10;;
38162;SDS011;23977;53.078;18.248;2023-03-08T10:50:18;4.90;;;2.40;;
38162;SDS011;23977;53.078;18.248;2023-03-08T10:52:47;6.68;;;3.38;;
38162;SDS011;23977;53.078;18.248;2023-03-08T10:55:16;6.22;;;3.05;;
38162;SDS011;23977;53.078;18.248;2023-03-08T11:00:31;6.30;;;2.90;;
38162;SDS011;23977;53.078;18.248;2023-03-08T11:08:28;6.40;;;2.88;;
38162;SDS011;23977;53.078;18.248;2023-03-08T11:11:00;5.88;;;2.90;;
38162;SDS011;23977;53.078;18.248;2023-03-08T11:13:30;7.03;;;2.92;;
38162;SDS011;23977;53.078;18.248;2023-03-08T11:16:06;11.35;;;4.05;;
38162;SDS011;23977;53.078;18.248;2023-03-08T11:18:45;9.05;;;3.45;;
38162;SDS011;23977;53.078;18.248;2023-03-08T11:26:28;6.60;;;2.55;;
38162;SDS011;23977;53.078;18.248;2023-03-08T11:29:24;7.85;;;2.80;;
38162;SDS011;23977;53.078;18.248;2023-03-08T11:34:59;4.40;;;2.47;;
38162;SDS011;23977;53.078;18.248;2023-03-08T11:40:23;5.93;;;3.30;;
38162;SDS011;23977;53.078;18.248;2023-03-08T11:59:10;8.65;;;3.50;;
38162;SDS011;23977;53.078;18.248;2023-03-08T12:01:59;6.13;;;3.47;;
38162;SDS011;23977;53.078;18.248;2023-03-08T12:04:42;6.95;;;3.22;;
38162;SDS011;23977;53.078;18.248;2023-03-08T12:07:16;6.05;;;3.42;;
38162;SDS011;23977;53.078;18.248;2023-03-08T12:09:53;7.95;;;4.30;;
38162;SDS011;23977;53.078;18.248;2023-03-08T12:12:30;6.88;;;4.38;;
38162;SDS011;23977;53.078;18.248;2023-03-08T12:18:19;9.40;;;5.30;;
38162;SDS011;23977;53.078;18.248;2023-03-08T12:20:54;9.60;;;5.68;;
38162;SDS011;23977;53.078;18.248;2023-03-08T12:29:23;9.55;;;5.80;;
38162;SDS011;23977;53.078;18.248;2023-03-08T12:31:55;8.70;;;5.22;;
38162;SDS011;23977;53.078;18.248;2023-03-08T12:36:48;8.45;;;4.63;;
38162;SDS011;23977;53.078;18.248;2023-03-08T12:41:56;10.77;;;5.70;;
38162;SDS011;23977;53.078;18.248;2023-03-08T12:44:27;9.52;;;5.75;;
38162;SDS011;23977;53.078;18.248;2023-03-08T12:46:56;11.93;;;7.63;;
38162;SDS011;23977;53.078;18.248;2023-03-08T12:49:29;13.52;;;8.27;;
38162;SDS011;23977;53.078;18.248;2023-03-08T12:52:01;9.50;;;6.28;;
38162;SDS011;23977;53.078;18.248;2023-03-08T12:54:31;16.13;;;9.45;;
38162;SDS011;23977;53.078;18.248;2023-03-08T12:57:00;13.43;;;7.18;;
38162;SDS011;23977;53.078;18.248;2023-03-08T12:59:38;11.55;;;6.60;;
38162;SDS011;23977;53.078;18.248;2023-03-08T13:05:00;6.53;;;4.03;;
38162;SDS011;23977;53.078;18.248;2023-03-08T13:10:34;5.78;;;3.05;;
38162;SDS011;23977;53.078;18.248;2023-03-08T13:15:37;7.15;;;3.40;;
38162;SDS011;23977;53.078;18.248;2023-03-08T13:23:39;8.85;;;3.60;;
38162;SDS011;23977;53.078;18.248;2023-03-08T13:29:09;9.95;;;4.80;;
38162;SDS011;23977;53.078;18.248;2023-03-08T13:31:38;8.77;;;4.03;;
38162;SDS011;23977;53.078;18.248;2023-03-08T13:34:04;7.65;;;4.05;;
38162;SDS011;23977;53.078;18.248;2023-03-08T13:36:48;8.35;;;4.25;;
38162;SDS011;23977;53.078;18.248;2023-03-08T13:39:19;7.78;;;3.78;;
38162;SDS011;23977;53.078;18.248;2023-03-08T13:41:46;8.90;;;3.40;;
38162;SDS011;23977;53.078;18.248;2023-03-08T13:44:14;8.07;;;3.90;;
38162;SDS011;23977;53.078;18.248;2023-03-08T13:46:51;6.25;;;3.45;;
38162;SDS011;23977;53.078;18.248;2023-03-08T13:49:31;7.25;;;3.35;;
38162;SDS011;23977;53.078;18.248;2023-03-08T13:52:01;7.90;;;3.65;;
38162;SDS011;23977;53.078;18.248;2023-03-08T13:54:30;8.25;;;3.95;;
38162;SDS011;23977;53.078;18.248;2023-03-08T13:56:59;7.53;;;4.10;;
38162;SDS011;23977;53.078;18.248;2023-03-08T13:59:30;8.50;;;3.83;;
38162;SDS011;23977;53.078;18.248;2023-03-08T14:01:56;8.80;;;3.95;;
38162;SDS011;23977;53.078;18.248;2023-03-08T14:04:24;8.27;;;4.10;;
38162;SDS011;23977;53.078;18.248;2023-03-08T14:06:52;5.97;;;2.97;;
38162;SDS011;23977;53.078;18.248;2023-03-08T14:09:25;7.80;;;3.20;;
38162;SDS011;23977;53.078;18.248;2023-03-08T14:12:12;4.97;;;2.28;;
38162;SDS011;23977;53.078;18.248;2023-03-08T14:14:42;6.50;;;3.10;;
38162;SDS011;23977;53.078;18.248;2023-03-08T14:17:19;9.15;;;4.47;;
38162;SDS011;23977;53.078;18.248;2023-03-08T14:20:30;8.02;;;3.75;;
38162;SDS011;23977;53.078;18.248;2023-03-08T14:22:44;5.90;;;2.83;;
38162;SDS011;23977;53.078;18.248;2023-03-08T14:25:25;7.30;;;3.30;;
38162;SDS011;23977;53.078;18.248;2023-03-08T14:27:53;6.43;;;3.40;;
38162;SDS011;23977;53.078;18.248;2023-03-08T14:30:25;8.27;;;3.75;;
38162;SDS011;23977;53.078;18.248;2023-03-08T14:32:57;6.47;;;3.30;;
38162;SDS011;23977;53.078;18.248;2023-03-08T14:35:32;6.72;;;3.50;;
38162;SDS011;23977;53.078;18.248;2023-03-08T14:38:01;7.95;;;3.70;;
38162;SDS011;23977;53.078;18.248;2023-03-08T14:40:32;8.02;;;3.90;;
38162;SDS011;23977;53.078;18.248;2023-03-08T14:43:05;6.93;;;3.22;;
38162;SDS011;23977;53.078;18.248;2023-03-08T14:45:49;6.63;;;2.97;;
38162;SDS011;23977;53.078;18.248;2023-03-08T14:48:27;6.13;;;3.35;;
38162;SDS011;23977;53.078;18.248;2023-03-08T14:50:58;6.40;;;3.30;;
38162;SDS011;23977;53.078;18.248;2023-03-08T14:53:37;6.38;;;3.53;;
38162;SDS011;23977;53.078;18.248;2023-03-08T14:56:11;9.43;;;4.60;;
38162;SDS011;23977;53.078;18.248;2023-03-08T14:58:39;10.38;;;4.38;;
38162;SDS011;23977;53.078;18.248;2023-03-08T15:01:07;11.23;;;4.68;;
38162;SDS011;23977;53.078;18.248;2023-03-08T15:03:33;7.50;;;3.70;;
38162;SDS011;23977;53.078;18.248;2023-03-08T15:06:05;7.63;;;3.20;;
38162;SDS011;23977;53.078;18.248;2023-03-08T15:08:36;5.95;;;3.20;;
38162;SDS011;23977;53.078;18.248;2023-03-08T15:11:02;6.75;;;2.65;;
38162;SDS011;23977;53.078;18.248;2023-03-08T15:13:27;5.18;;;2.60;;
38162;SDS011;23977;53.078;18.248;2023-03-08T15:15:53;6.72;;;2.90;;
38162;SDS011;23977;53.078;18.248;2023-03-08T15:18:19;8.95;;;3.83;;
38162;SDS011;23977;53.078;18.248;2023-03-08T15:20:46;10.10;;;4.68;;
38162;SDS011;23977;53.078;18.248;2023-03-08T15:23:22;12.73;;;6.47;;
38162;SDS011;23977;53.078;18.248;2023-03-08T15:25:53;16.92;;;8.63;;
38162;SDS011;23977;53.078;18.248;2023-03-08T15:28:20;12.85;;;6.72;;
38162;SDS011;23977;53.078;18.248;2023-03-08T15:30:47;10.90;;;4.85;;
38162;SDS011;23977;53.078;18.248;2023-03-08T15:33:13;8.52;;;4.30;;
38162;SDS011;23977;53.078;18.248;2023-03-08T15:35:39;7.75;;;4.25;;
38162;SDS011;23977;53.078;18.248;2023-03-08T15:38:05;6.13;;;3.00;;
38162;SDS011;23977;53.078;18.248;2023-03-08T15:40:32;6.28;;;3.30;;
38162;SDS011;23977;53.078;18.248;2023-03-08T15:42:58;5.63;;;2.92;;
38162;SDS011;23977;53.078;18.248;2023-03-08T15:45:25;5.13;;;3.05;;
38162;SDS011;23977;53.078;18.248;2023-03-08T15:50:21;6.47;;;3.20;;
38162;SDS011;23977;53.078;18.248;2023-03-08T15:52:47;5.75;;;3.00;;
38162;SDS011;23977;53.078;18.248;2023-03-08T15:55:13;6.88;;;3.42;;
38162;SDS011;23977;53.078;18.248;2023-03-08T15:57:39;6.60;;;3.30;;
38162;SDS011;23977;53.078;18.248;2023-03-08T16:00:06;7.90;;;3.80;;
38162;SDS011;23977;53.078;18.248;2023-03-08T16:02:33;6.50;;;3.60;;
38162;SDS011;23977;53.078;18.248;2023-03-08T16:05:02;6.30;;;3.80;;
38162;SDS011;23977;53.078;18.248;2023-03-08T16:07:28;7.88;;;3.67;;
38162;SDS011;23977;53.078;18.248;2023-03-08T16:09:54;6.10;;;3.33;;
38162;SDS011;23977;53.078;18.248;2023-03-08T16:12:20;8.15;;;3.35;;
38162;SDS011;23977;53.078;18.248;2023-03-08T16:14:46;8.23;;;3.65;;
38162;SDS011;23977;53.078;18.248;2023-03-08T16:17:13;8.00;;;3.83;;